Ostrica, Louisiana
Current Conditions -  °F | °C
As of 7:51 PM on Sunday 25 Jan 2015 (Local Time) from KBVE Reporting Station
Clear Clear  
Wind Chill: 61°   Ceiling: Unl
Heat Index: 61°   Visibility: 10mi
Dew Point: 48°   Wind: 21mph
Humidity: 62%   Direction: 270°W
Pressure: 29.94"   Gusts: NA
Location:  29.2996°N, 89.4367°W
Report Text: KBVE 260151Z AUTO 27018KT 10SM CLR 16/09 A2994 RMK AO2 PK WND 25029/0106 SLP138 T01610089
Loading
Personal Weather Stations






























Interactive Weather Map New forecast layout! Learn more

10-Day Weather Forecast

Advertisements
Track Severe Weather on mobile